createdAt,value
2022-08-01T00:00:29.483Z,10
2022-08-01T00:01:30.513Z,10
2022-08-01T00:02:33.432Z,11
2022-08-01T00:03:35.299Z,10
2022-08-01T00:04:39.189Z,10
2022-08-01T00:05:44.521Z,10
2022-08-01T00:06:46.121Z,10
2022-08-01T00:07:47.399Z,10
2022-08-01T00:08:50.121Z,9
2022-08-01T00:09:52.520Z,10
2022-08-01T00:11:03.268Z,10
2022-08-01T00:12:09.249Z,11
2022-08-01T00:13:15.992Z,11
2022-08-01T00:14:17.841Z,11
2022-08-01T00:15:33.479Z,11
2022-08-01T00:16:34.896Z,10
2022-08-01T00:17:36.727Z,10
2022-08-01T00:18:38.859Z,9
2022-08-01T00:19:41.452Z,10
2022-08-01T00:20:42.687Z,10
2022-08-01T00:22:03.538Z,10
2022-08-01T00:23:07.261Z,10
2022-08-01T00:24:19.253Z,10
2022-08-01T00:25:35.318Z,10
2022-08-01T00:26:38.636Z,10
2022-08-01T00:27:41.052Z,10
2022-08-01T00:28:44.766Z,10
2022-08-01T00:30:15.413Z,9
2022-08-01T00:31:22.097Z,9
2022-08-01T00:32:25.050Z,9
2022-08-01T00:33:26.059Z,11
2022-08-01T00:34:30.498Z,10
2022-08-01T00:35:31.694Z,10
2022-08-01T00:36:32.678Z,11
2022-08-01T00:37:33.686Z,9
2022-08-01T00:38:35.760Z,9
2022-08-01T00:39:38.148Z,8
2022-08-01T00:40:39.928Z,7
2022-08-01T00:41:41.742Z,8
2022-08-01T00:42:44.808Z,9
2022-08-01T00:43:47.447Z,10
2022-08-01T00:44:50.186Z,10
2022-08-01T00:45:52.532Z,10
2022-08-01T00:46:53.512Z,10
2022-08-01T00:47:56.521Z,10
2022-08-01T00:49:00.367Z,11
2022-08-01T00:50:02.452Z,12
2022-08-01T00:51:04.058Z,11
2022-08-01T00:52:09.756Z,11
2022-08-01T00:53:19.510Z,9
2022-08-01T00:54:22.809Z,9
2022-08-01T00:55:24.924Z,9
2022-08-01T00:56:27.337Z,9
2022-08-01T00:58:06.934Z,11
2022-08-01T00:59:15.412Z,10
2022-08-01T01:00:17.454Z,11
2022-08-01T01:01:19.818Z,12
2022-08-01T01:02:23.022Z,10
2022-08-01T01:04:00.158Z,10
2022-08-01T01:05:01.621Z,10
2022-08-01T01:06:03.165Z,9
2022-08-01T01:07:05.462Z,10
2022-08-01T01:08:06.768Z,10
2022-08-01T01:09:08.636Z,9
2022-08-01T01:10:13.088Z,9
2022-08-01T01:11:14.410Z,9
2022-08-01T01:12:15.672Z,9
2022-08-01T01:13:16.933Z,8
2022-08-01T01:14:18.581Z,8
2022-08-01T01:15:19.578Z,8
2022-08-01T01:16:23.396Z,8
2022-08-01T01:17:52.775Z,8
2022-08-01T01:18:53.799Z,9
2022-08-01T01:19:58.523Z,9
2022-08-01T01:21:00.346Z,8
2022-08-01T01:22:03.085Z,9
2022-08-01T01:23:06.368Z,8
2022-08-01T01:24:08.233Z,8
2022-08-01T01:25:09.494Z,8
2022-08-01T01:26:11.828Z,8
2022-08-01T01:27:16.720Z,8
2022-08-01T01:28:20.230Z,9
2022-08-01T01:29:23.580Z,11
2022-08-01T01:30:25.415Z,11
2022-08-01T01:31:26.962Z,11
2022-08-01T01:32:32.239Z,10
2022-08-01T01:33:34.587Z,10
2022-08-01T01:34:48.714Z,9
2022-08-01T01:35:50.779Z,9
2022-08-01T01:36:51.796Z,9
2022-08-01T01:37:52.771Z,8
2022-08-01T01:38:55.568Z,8
2022-08-01T01:39:57.145Z,8
2022-08-01T01:40:58.684Z,9
2022-08-01T01:42:00.644Z,9
2022-08-01T01:43:01.884Z,9
2022-08-01T01:44:02.926Z,9
2022-08-01T01:45:03.943Z,9
2022-08-01T01:46:05.727Z,9
2022-08-01T01:47:07.047Z,8
2022-08-01T01:48:08.896Z,8
2022-08-01T01:49:11.434Z,8
2022-08-01T01:50:13.205Z,8
2022-08-01T01:51:14.563Z,8
2022-08-01T01:52:16.481Z,8
2022-08-01T01:53:17.739Z,8
2022-08-01T01:54:19.313Z,7
2022-08-01T01:55:20.304Z,7
2022-08-01T01:56:21.335Z,9
2022-08-01T01:57:24.130Z,9
2022-08-01T01:58:26.749Z,9
2022-08-01T01:59:29.087Z,9
2022-08-01T02:00:30.889Z,9
2022-08-01T02:02:07.204Z,9
2022-08-01T02:03:09.559Z,9
2022-08-01T02:04:12.073Z,9
2022-08-01T02:05:13.880Z,8
2022-08-01T02:06:15.447Z,7
2022-08-01T02:07:19.139Z,7
2022-08-01T02:08:21.479Z,7
2022-08-01T02:09:24.117Z,7
2022-08-01T02:10:29.663Z,8
2022-08-01T02:11:31.703Z,7
2022-08-01T02:12:34.227Z,8
2022-08-01T02:13:35.506Z,8
2022-08-01T02:14:37.251Z,8
2022-08-01T02:15:38.286Z,8
2022-08-01T02:17:02.164Z,8
2022-08-01T02:18:11.537Z,8
2022-08-01T02:19:12.980Z,8
2022-08-01T02:20:14.203Z,7
2022-08-01T02:21:15.237Z,8
2022-08-01T02:22:16.245Z,9
2022-08-01T02:23:17.239Z,9
2022-08-01T02:24:18.801Z,9
2022-08-01T02:25:20.087Z,9
2022-08-01T02:26:21.129Z,8
2022-08-01T02:27:23.480Z,8
2022-08-01T02:28:28.405Z,8
2022-08-01T02:29:33.834Z,8
2022-08-01T02:30:35.149Z,7
2022-08-01T02:31:36.814Z,8
2022-08-01T02:32:38.110Z,8
2022-08-01T02:33:39.672Z,8
2022-08-01T02:34:40.871Z,8
2022-08-01T02:36:34.039Z,8
2022-08-01T02:37:35.021Z,8
2022-08-01T02:38:36.349Z,8
2022-08-01T02:39:37.349Z,9
2022-08-01T02:40:38.378Z,9
2022-08-01T02:41:40.493Z,10
2022-08-01T02:42:42.561Z,10
2022-08-01T02:43:43.820Z,9
2022-08-01T02:44:54.088Z,9
2022-08-01T02:45:57.884Z,8
2022-08-01T02:46:58.939Z,9
2022-08-01T02:48:01.604Z,8
2022-08-01T02:49:04.149Z,9
2022-08-01T02:50:05.944Z,9
2022-08-01T02:51:07.248Z,8
2022-08-01T02:52:09.645Z,8
2022-08-01T02:53:10.768Z,8
2022-08-01T02:54:11.786Z,8
2022-08-01T02:55:13.289Z,9
2022-08-01T02:56:14.568Z,9
2022-08-01T02:57:20.971Z,9
2022-08-01T02:58:30.922Z,8
2022-08-01T02:59:34.485Z,8
2022-08-01T03:00:37.384Z,9
2022-08-01T03:01:43.839Z,9
2022-08-01T03:02:45.281Z,9
2022-08-01T03:03:47.813Z,7
2022-08-01T03:04:55.203Z,7
2022-08-01T03:05:58.955Z,7
2022-08-01T03:07:01.034Z,8
2022-08-01T03:08:04.563Z,9
2022-08-01T03:09:17.491Z,9
2022-08-01T03:10:18.976Z,9
2022-08-01T03:11:19.953Z,10
2022-08-01T03:12:22.036Z,10
2022-08-01T03:13:23.333Z,10
2022-08-01T03:14:26.577Z,9
2022-08-01T03:15:28.640Z,8
2022-08-01T03:16:29.918Z,8
2022-08-01T03:17:31.002Z,8
2022-08-01T03:18:32.046Z,8
2022-08-01T03:19:34.230Z,8
2022-08-01T03:20:35.274Z,8
2022-08-01T03:21:37.898Z,8
2022-08-01T03:22:40.020Z,7
2022-08-01T03:23:41.023Z,8
2022-08-01T03:24:42.058Z,8
2022-08-01T03:25:44.451Z,9
2022-08-01T03:26:46.534Z,9
2022-08-01T03:27:48.628Z,9
2022-08-01T03:28:49.869Z,9
2022-08-01T03:29:51.367Z,9
2022-08-01T03:30:52.383Z,9
2022-08-01T03:31:53.392Z,9
2022-08-01T03:32:54.924Z,9
2022-08-01T03:33:56.449Z,9
2022-08-01T03:34:57.431Z,9
2022-08-01T03:35:58.989Z,9
2022-08-01T03:37:00.018Z,10
2022-08-01T03:38:17.107Z,9
2022-08-01T03:39:21.059Z,9
2022-08-01T03:40:25.931Z,9
2022-08-01T03:41:26.907Z,8
2022-08-01T03:42:28.728Z,9
2022-08-01T03:43:30.172Z,10
2022-08-01T03:44:34.313Z,10
2022-08-01T03:45:35.832Z,11
2022-08-01T03:46:38.507Z,9
2022-08-01T03:47:45.333Z,10
2022-08-01T03:48:52.754Z,10
2022-08-01T03:49:56.362Z,10
2022-08-01T03:50:57.659Z,10
2022-08-01T03:51:58.617Z,9
2022-08-01T03:53:00.126Z,9
2022-08-01T03:54:02.538Z,9
2022-08-01T03:55:04.347Z,9
2022-08-01T03:56:06.979Z,9
2022-08-01T03:57:37.115Z,9
2022-08-01T03:58:38.537Z,10
2022-08-01T03:59:40.594Z,10
2022-08-01T04:00:41.577Z,10
2022-08-01T04:01:43.342Z,10
2022-08-01T04:02:48.433Z,9
2022-08-01T04:03:50.542Z,9
2022-08-01T04:04:51.905Z,9
2022-08-01T04:05:52.885Z,9
2022-08-01T04:06:54.685Z,10
2022-08-01T04:07:56.788Z,11
2022-08-01T04:08:58.644Z,12
2022-08-01T04:09:59.620Z,12
2022-08-01T04:11:00.690Z,12
2022-08-01T04:12:13.142Z,12
2022-08-01T04:13:14.790Z,11
2022-08-01T04:14:15.927Z,11
2022-08-01T04:15:17.209Z,11
2022-08-01T04:16:19.042Z,12
2022-08-01T04:17:20.043Z,12
2022-08-01T04:18:21.320Z,12
2022-08-01T04:19:22.593Z,11
2022-08-01T04:20:25.057Z,10
2022-08-01T04:21:27.111Z,11
2022-08-01T04:22:29.187Z,12
2022-08-01T04:23:30.480Z,13
2022-08-01T04:24:32.047Z,14
2022-08-01T04:25:33.307Z,13
2022-08-01T04:26:34.580Z,13
2022-08-01T04:27:54.263Z,13
2022-08-01T04:28:55.258Z,12
2022-08-01T04:29:56.553Z,12
2022-08-01T04:31:02.637Z,12
2022-08-01T04:32:08.558Z,12
2022-08-01T04:33:10.524Z,12
2022-08-01T04:34:21.837Z,12
2022-08-01T04:36:06.704Z,12
2022-08-01T04:37:08.507Z,13
2022-08-01T04:38:10.319Z,12
2022-08-01T04:39:12.430Z,12
2022-08-01T04:40:14.782Z,12
2022-08-01T04:41:17.131Z,11
2022-08-01T04:42:35.215Z,11
2022-08-01T04:43:37.011Z,12
2022-08-01T04:44:39.181Z,12
2022-08-01T04:45:41.269Z,13
2022-08-01T04:46:44.798Z,14
2022-08-01T04:47:45.799Z,13
2022-08-01T04:48:50.867Z,13
2022-08-01T04:50:00.922Z,13
2022-08-01T04:51:16.491Z,12
2022-08-01T04:52:25.382Z,12
2022-08-01T04:53:26.430Z,11
2022-08-01T04:54:27.418Z,11
2022-08-01T04:55:28.953Z,12
2022-08-01T04:56:31.205Z,11
2022-08-01T04:57:32.821Z,13
2022-08-01T04:58:33.822Z,13
2022-08-01T04:59:36.413Z,12
2022-08-01T05:00:39.856Z,14
2022-08-01T05:01:42.761Z,14
2022-08-01T05:02:45.030Z,14
2022-08-01T05:03:46.831Z,14
2022-08-01T05:04:48.874Z,14
2022-08-01T05:05:50.428Z,13
2022-08-01T05:06:52.253Z,13
2022-08-01T05:07:53.487Z,13
2022-08-01T05:08:54.489Z,13
2022-08-01T05:09:56.688Z,14
2022-08-01T05:11:15.157Z,14
2022-08-01T05:12:37.180Z,14
2022-08-01T05:13:39.796Z,14
2022-08-01T05:14:42.388Z,13
2022-08-01T05:15:45.762Z,13
2022-08-01T05:16:48.411Z,13
2022-08-01T05:17:49.683Z,13
2022-08-01T05:18:52.216Z,13
2022-08-01T05:19:53.942Z,12
2022-08-01T05:20:55.207Z,13
2022-08-01T05:22:00.584Z,13
2022-08-01T05:23:02.079Z,13
2022-08-01T05:24:05.698Z,13
2022-08-01T05:25:09.722Z,13
2022-08-01T05:27:00.848Z,12
2022-08-01T05:28:04.739Z,12
2022-08-01T05:29:07.540Z,13
2022-08-01T05:30:08.661Z,14
2022-08-01T05:31:09.698Z,14
2022-08-01T05:32:11.502Z,15
2022-08-01T05:33:20.541Z,15
2022-08-01T05:34:23.160Z,14
2022-08-01T05:35:50.122Z,15
2022-08-01T05:36:58.871Z,15
2022-08-01T05:38:00.413Z,15
2022-08-01T05:39:02.189Z,16
2022-08-01T05:40:10.643Z,15
2022-08-01T05:41:13.795Z,14
2022-08-01T05:42:19.181Z,13
2022-08-01T05:43:25.548Z,14
2022-08-01T05:44:30.931Z,14
2022-08-01T05:45:33.051Z,14
2022-08-01T05:46:35.659Z,14
2022-08-01T05:47:44.881Z,13
2022-08-01T05:48:46.666Z,15
2022-08-01T05:49:51.610Z,15
2022-08-01T05:50:59.847Z,16
2022-08-01T05:52:01.620Z,16
2022-08-01T05:53:03.230Z,15
2022-08-01T05:54:05.080Z,15
2022-08-01T05:55:10.265Z,14
2022-08-01T05:56:11.359Z,15
2022-08-01T05:57:16.327Z,14
2022-08-01T05:58:17.903Z,14
2022-08-01T05:59:19.148Z,15
2022-08-01T06:00:21.520Z,14
2022-08-01T06:01:33.165Z,16
2022-08-01T06:02:40.054Z,16
2022-08-01T06:03:41.615Z,15
2022-08-01T06:04:43.159Z,15
2022-08-01T06:05:45.089Z,14
2022-08-01T06:06:46.241Z,13
2022-08-01T06:07:47.320Z,13
2022-08-01T06:08:52.257Z,14
2022-08-01T06:09:53.329Z,13
2022-08-01T06:10:54.549Z,14
2022-08-01T06:11:55.565Z,15
2022-08-01T06:12:56.860Z,15
2022-08-01T06:13:57.965Z,15
2022-08-01T06:15:00.311Z,15
2022-08-01T06:16:02.168Z,14
2022-08-01T06:17:04.239Z,14
2022-08-01T06:18:08.026Z,13
2022-08-01T06:19:09.305Z,13
2022-08-01T06:20:10.655Z,13
2022-08-01T06:21:11.674Z,13
2022-08-01T06:22:13.255Z,13
2022-08-01T06:23:33.564Z,15
2022-08-01T06:24:35.665Z,14
2022-08-01T06:25:37.524Z,13
2022-08-01T06:26:39.365Z,13
2022-08-01T06:27:41.163Z,13
2022-08-01T06:28:52.627Z,12
2022-08-01T06:29:54.981Z,13
2022-08-01T06:30:56.862Z,13
2022-08-01T06:31:58.645Z,13
2022-08-01T06:33:00.503Z,14
2022-08-01T06:34:02.573Z,15
2022-08-01T06:35:03.761Z,16
2022-08-01T06:36:05.700Z,15
2022-08-01T06:37:09.208Z,15
2022-08-01T06:38:13.713Z,13
2022-08-01T06:39:14.974Z,12
2022-08-01T06:40:17.932Z,13
2022-08-01T06:41:19.189Z,13
2022-08-01T06:42:20.153Z,14
2022-08-01T06:43:21.745Z,13
2022-08-01T06:44:23.020Z,13
2022-08-01T06:45:25.091Z,13
2022-08-01T06:46:33.845Z,13
2022-08-01T06:47:38.005Z,14
2022-08-01T06:48:40.236Z,14
2022-08-01T06:49:41.322Z,14
2022-08-01T06:50:43.267Z,14
2022-08-01T06:51:44.779Z,15
2022-08-01T06:52:46.511Z,16
2022-08-01T06:53:48.108Z,17
2022-08-01T06:54:49.701Z,16
2022-08-01T06:55:51.099Z,15
2022-08-01T06:56:55.991Z,13
2022-08-01T06:58:01.381Z,12
2022-08-01T06:59:05.940Z,12
2022-08-01T07:00:13.470Z,13
2022-08-01T07:01:23.079Z,13
2022-08-01T07:02:24.761Z,13
2022-08-01T07:03:55.524Z,13
2022-08-01T07:04:59.149Z,13
2022-08-01T07:06:04.013Z,12
2022-08-01T07:07:06.078Z,12
2022-08-01T07:08:07.666Z,12
2022-08-01T07:09:15.286Z,12
2022-08-01T07:10:16.350Z,12
2022-08-01T07:11:17.692Z,12
2022-08-01T07:12:20.273Z,12
2022-08-01T07:13:23.413Z,13
2022-08-01T07:14:49.974Z,14
2022-08-01T07:15:58.359Z,13
2022-08-01T07:17:09.071Z,12
2022-08-01T07:18:33.766Z,11
2022-08-01T07:21:39.434Z,11
2022-08-01T07:22:51.565Z,12
2022-08-01T07:24:00.553Z,12
2022-08-01T07:25:17.342Z,11
2022-08-01T07:26:20.218Z,11
2022-08-01T07:27:26.926Z,11
2022-08-01T07:28:43.827Z,11
2022-08-01T07:29:48.025Z,10
2022-08-01T07:30:52.675Z,10
2022-08-01T07:31:54.509Z,9
2022-08-01T07:32:56.410Z,10
2022-08-01T07:35:36.069Z,12
2022-08-01T07:36:41.177Z,12
2022-08-01T07:37:53.178Z,11
2022-08-01T07:39:05.343Z,10
2022-08-01T07:40:07.315Z,9
2022-08-01T07:41:09.967Z,9
2022-08-01T07:42:11.851Z,10
2022-08-01T07:43:16.319Z,10
2022-08-01T07:44:18.972Z,11
2022-08-01T07:45:20.302Z,13
2022-08-01T07:46:21.499Z,14
2022-08-01T07:47:24.137Z,14
2022-08-01T07:48:33.073Z,13
2022-08-01T07:49:41.587Z,12
2022-08-01T07:50:42.753Z,11
2022-08-01T07:52:05.181Z,11
2022-08-01T07:53:14.164Z,13
2022-08-01T07:54:35.342Z,14
2022-08-01T07:55:37.978Z,13
2022-08-01T07:56:38.985Z,14
2022-08-01T07:57:40.774Z,12
2022-08-01T07:58:43.174Z,11
2022-08-01T07:59:46.965Z,11
2022-08-01T08:00:48.955Z,10
2022-08-01T08:01:50.382Z,10
2022-08-01T08:02:55.348Z,9
2022-08-01T08:03:57.714Z,8
2022-08-01T08:04:59.507Z,8
2022-08-01T08:06:06.144Z,7
2022-08-01T08:07:10.732Z,8
2022-08-01T08:08:12.562Z,9
2022-08-01T08:09:14.434Z,10
2022-08-01T08:10:17.078Z,12
2022-08-01T08:11:18.392Z,12
2022-08-01T08:12:30.499Z,11
2022-08-01T08:13:37.640Z,10
2022-08-01T08:14:39.193Z,9
2022-08-01T08:15:41.056Z,9
2022-08-01T08:16:48.955Z,8
2022-08-01T08:17:55.570Z,9
2022-08-01T08:18:57.075Z,8
2022-08-01T08:20:01.220Z,8
2022-08-01T08:21:07.253Z,9
2022-08-01T08:22:12.517Z,8
2022-08-01T08:23:44.307Z,8
2022-08-01T08:24:47.941Z,8
2022-08-01T08:25:49.995Z,8
2022-08-01T08:26:52.931Z,9
2022-08-01T08:27:54.513Z,9
2022-08-01T08:28:56.906Z,9
2022-08-01T08:29:58.264Z,9
2022-08-01T08:31:02.105Z,9
2022-08-01T08:32:04.245Z,9
2022-08-01T08:33:14.049Z,9
2022-08-01T08:34:16.693Z,9
2022-08-01T08:35:54.610Z,10
2022-08-01T08:36:57.141Z,11
2022-08-01T08:38:02.305Z,11
2022-08-01T08:39:11.799Z,11
2022-08-01T08:40:13.378Z,11
2022-08-01T08:41:22.297Z,11
2022-08-01T08:42:24.402Z,11
2022-08-01T08:43:26.658Z,11
2022-08-01T08:44:28.507Z,12
2022-08-01T08:46:00.721Z,12
2022-08-01T08:47:01.709Z,13
2022-08-01T08:48:05.817Z,13
2022-08-01T08:49:07.568Z,13
2022-08-01T08:50:09.720Z,13
2022-08-01T08:51:14.574Z,13
2022-08-01T08:52:16.970Z,13
2022-08-01T08:53:19.519Z,13
2022-08-01T08:54:21.155Z,12
2022-08-01T08:55:31.966Z,12
2022-08-01T08:56:58.650Z,12
2022-08-01T08:57:59.977Z,13
2022-08-01T08:59:01.799Z,14
2022-08-01T09:00:02.815Z,14
2022-08-01T09:01:04.666Z,14
2022-08-01T09:02:10.847Z,14
2022-08-01T09:03:14.623Z,14
2022-08-01T09:04:17.255Z,14
2022-08-01T09:05:40.073Z,14
2022-08-01T09:06:42.363Z,13
2022-08-01T09:08:12.098Z,13
2022-08-01T09:09:13.720Z,12
2022-08-01T09:10:15.700Z,13
2022-08-01T09:11:23.831Z,12
2022-08-01T09:12:25.475Z,12
2022-08-01T09:13:27.388Z,11
2022-08-01T09:14:28.769Z,11
2022-08-01T09:15:35.113Z,12
2022-08-01T09:16:36.977Z,13
2022-08-01T09:17:39.058Z,14
2022-08-01T09:18:44.628Z,14
2022-08-01T09:19:55.503Z,14
2022-08-01T09:21:00.605Z,13
2022-08-01T09:22:01.661Z,14
2022-08-01T09:23:04.917Z,13
2022-08-01T09:24:06.732Z,14
2022-08-01T09:25:07.719Z,14
2022-08-01T09:26:08.866Z,13
2022-08-01T09:27:10.619Z,13
2022-08-01T09:28:16.129Z,13
2022-08-01T09:29:41.252Z,13
2022-08-01T09:31:02.538Z,13
2022-08-01T09:32:06.548Z,12
2022-08-01T09:33:28.697Z,12
2022-08-01T09:34:38.528Z,11
2022-08-01T09:35:44.461Z,10
2022-08-01T09:36:46.315Z,11
2022-08-01T09:37:49.576Z,11
2022-08-01T09:38:54.787Z,12
2022-08-01T09:39:55.797Z,12
2022-08-01T09:40:59.398Z,12
2022-08-01T09:42:03.531Z,11
2022-08-01T09:43:08.331Z,11
2022-08-01T09:44:10.385Z,11
2022-08-01T09:45:24.450Z,11
2022-08-01T09:46:29.262Z,11
2022-08-01T09:47:31.193Z,11
2022-08-01T09:48:33.861Z,11
2022-08-01T09:49:53.442Z,11
2022-08-01T09:51:10.065Z,11
2022-08-01T09:52:11.065Z,10
2022-08-01T09:53:31.243Z,11
2022-08-01T09:54:40.874Z,11
2022-08-01T09:55:43.921Z,10
2022-08-01T09:56:49.053Z,11
2022-08-01T09:57:51.046Z,11
2022-08-01T09:59:02.855Z,11
2022-08-01T10:00:04.069Z,10
2022-08-01T10:01:05.756Z,11
2022-08-01T10:02:07.800Z,11
2022-08-01T10:03:12.033Z,11
2022-08-01T10:04:17.125Z,11
2022-08-01T10:05:24.096Z,11
2022-08-01T10:06:39.535Z,11
2022-08-01T10:07:45.106Z,12
2022-08-01T10:08:47.091Z,12
2022-08-01T10:09:48.350Z,11
2022-08-01T10:11:00.420Z,12
2022-08-01T10:12:03.509Z,12
2022-08-01T10:13:04.767Z,13
2022-08-01T10:14:10.532Z,13
2022-08-01T10:15:11.867Z,12
2022-08-01T10:16:17.019Z,12
2022-08-01T10:17:23.344Z,12
2022-08-01T10:18:59.117Z,11
2022-08-01T10:20:01.639Z,11
2022-08-01T10:21:11.316Z,12
2022-08-01T10:22:17.372Z,12
2022-08-01T10:23:21.557Z,12
2022-08-01T10:24:40.503Z,12
2022-08-01T10:25:47.507Z,12
2022-08-01T10:26:49.580Z,12
2022-08-01T10:27:52.639Z,13
2022-08-01T10:28:56.398Z,12
2022-08-01T10:30:24.506Z,12
2022-08-01T10:31:31.386Z,11
2022-08-01T10:32:32.907Z,11
2022-08-01T10:33:53.979Z,12
2022-08-01T10:35:16.114Z,11
2022-08-01T10:36:54.079Z,11
2022-08-01T10:37:55.946Z,11
2022-08-01T10:38:58.105Z,12
2022-08-01T10:40:31.939Z,12
2022-08-01T10:41:33.103Z,13
2022-08-01T10:42:35.816Z,13
2022-08-01T10:43:37.161Z,13
2022-08-01T10:44:39.671Z,13
2022-08-01T10:45:41.003Z,12
2022-08-01T10:46:46.901Z,12
2022-08-01T10:47:55.461Z,12
2022-08-01T10:49:01.359Z,12
2022-08-01T10:50:04.857Z,12
2022-08-01T10:51:19.362Z,12
2022-08-01T10:52:22.937Z,12
2022-08-01T10:53:44.000Z,12
2022-08-01T10:54:53.668Z,12
2022-08-01T10:55:55.626Z,12
2022-08-01T10:57:08.384Z,11
2022-08-01T10:58:16.462Z,11
2022-08-01T11:00:01.968Z,11
2022-08-01T11:01:03.944Z,12
2022-08-01T11:02:11.114Z,12
2022-08-01T11:03:13.678Z,12
2022-08-01T11:04:18.778Z,13
2022-08-01T11:05:24.604Z,12
2022-08-01T11:06:33.479Z,12
2022-08-01T11:07:36.270Z,11
2022-08-01T11:08:42.649Z,11
2022-08-01T11:09:52.691Z,12
2022-08-01T11:10:54.272Z,12
2022-08-01T11:11:55.809Z,13
2022-08-01T11:12:57.461Z,12
2022-08-01T11:14:00.143Z,11
2022-08-01T11:15:04.155Z,12
2022-08-01T11:16:23.987Z,12
2022-08-01T11:17:41.763Z,13
2022-08-01T11:18:47.602Z,13
2022-08-01T11:19:50.408Z,13
2022-08-01T11:22:01.936Z,12
2022-08-01T11:23:04.062Z,12
2022-08-01T11:24:07.939Z,11
2022-08-01T11:25:14.026Z,10
2022-08-01T11:26:30.328Z,11
2022-08-01T11:27:34.517Z,12
2022-08-01T11:29:21.437Z,12
2022-08-01T11:30:26.456Z,12
2022-08-01T11:31:29.026Z,11
2022-08-01T11:33:10.929Z,11
2022-08-01T11:34:16.616Z,11
2022-08-01T11:35:17.619Z,11
2022-08-01T11:36:37.216Z,12
2022-08-01T11:38:01.071Z,12
2022-08-01T11:39:14.641Z,12
2022-08-01T11:40:18.082Z,11
2022-08-01T11:41:39.566Z,11
2022-08-01T11:42:40.752Z,10
2022-08-01T11:43:41.758Z,10
2022-08-01T11:44:46.717Z,11
2022-08-01T11:45:51.453Z,12
2022-08-01T11:46:56.131Z,13
2022-08-01T11:48:01.081Z,13
2022-08-01T11:49:08.122Z,12
2022-08-01T11:50:11.268Z,12
2022-08-01T11:51:26.248Z,12
2022-08-01T11:52:28.340Z,12
2022-08-01T11:53:30.598Z,12
2022-08-01T11:54:37.083Z,12
2022-08-01T11:55:38.651Z,11
2022-08-01T11:56:50.471Z,12
2022-08-01T11:57:51.751Z,12
2022-08-01T11:58:56.201Z,12
2022-08-01T12:00:09.125Z,12
2022-08-01T12:01:17.404Z,11
2022-08-01T12:02:32.037Z,10
2022-08-01T12:03:46.246Z,10
2022-08-01T12:04:48.389Z,10
2022-08-01T12:05:49.961Z,10
2022-08-01T12:06:54.381Z,10
2022-08-01T12:08:01.213Z,10
2022-08-01T12:09:12.648Z,11
2022-08-01T12:10:17.134Z,11
2022-08-01T12:11:19.568Z,13
2022-08-01T12:12:28.634Z,12
2022-08-01T12:13:33.958Z,11
2022-08-01T12:14:37.006Z,11
2022-08-01T12:15:39.402Z,10
2022-08-01T12:16:41.270Z,11
2022-08-01T12:18:00.108Z,11
2022-08-01T12:19:01.700Z,11
2022-08-01T12:20:03.308Z,16
2022-08-01T12:21:05.140Z,19
2022-08-01T12:22:07.826Z,20
2022-08-01T12:23:09.665Z,21
2022-08-01T12:24:11.253Z,18
2022-08-01T12:25:12.513Z,15
2022-08-01T12:26:32.631Z,14
2022-08-01T12:27:34.126Z,15
2022-08-01T12:28:37.846Z,14
2022-08-01T12:29:39.683Z,13
2022-08-01T12:30:42.906Z,13
2022-08-01T12:33:07.678Z,12
2022-08-01T12:34:09.527Z,12
2022-08-01T12:41:21.083Z,11
2022-08-01T12:42:22.279Z,10
2022-08-01T12:43:30.190Z,10
2022-08-01T12:44:31.517Z,10
2022-08-01T12:45:33.028Z,11
2022-08-01T12:46:35.137Z,11
2022-08-01T12:47:36.673Z,10
2022-08-01T12:48:38.260Z,11
2022-08-01T12:49:40.640Z,10
2022-08-01T12:50:51.356Z,10
2022-08-01T12:51:58.346Z,11
2022-08-01T12:53:00.204Z,12
2022-08-01T12:54:01.436Z,12
2022-08-01T13:34:00.192Z,12
2022-08-01T13:35:01.651Z,13
2022-08-01T13:36:03.826Z,12
2022-08-01T13:37:06.060Z,12
2022-08-01T13:38:13.314Z,13
2022-08-01T13:39:15.119Z,12
2022-08-01T13:40:16.823Z,12
2022-08-01T13:41:17.859Z,12
2022-08-01T13:42:20.229Z,11
2022-08-01T13:43:21.718Z,13
2022-08-01T13:44:23.554Z,14
2022-08-01T13:45:28.250Z,15
2022-08-01T13:46:33.569Z,15
2022-08-01T13:47:36.674Z,14
2022-08-01T13:48:37.961Z,14
2022-08-01T13:49:41.735Z,14
2022-08-01T13:50:46.194Z,14
2022-08-01T13:52:23.842Z,12
2022-08-01T13:53:25.942Z,12
2022-08-01T13:54:28.077Z,12
2022-08-01T13:55:35.932Z,13
2022-08-01T13:56:37.508Z,13
2022-08-01T13:57:40.128Z,15
2022-08-01T13:58:42.551Z,15
2022-08-01T13:59:45.390Z,14
2022-08-01T14:00:46.845Z,13
2022-08-01T14:01:48.803Z,12
2022-08-01T14:02:50.093Z,11
2022-08-01T14:03:51.669Z,11
2022-08-01T14:04:52.685Z,11
2022-08-01T14:05:59.295Z,11
2022-08-01T14:07:14.332Z,11
2022-08-01T14:08:18.532Z,10
2022-08-01T14:09:33.182Z,11
2022-08-01T14:10:35.619Z,11
2022-08-01T14:11:38.493Z,12
2022-08-01T14:12:48.190Z,12
2022-08-01T14:13:50.079Z,12
2022-08-01T14:14:51.690Z,13
2022-08-01T14:15:55.856Z,14
2022-08-01T14:16:58.240Z,13
2022-08-01T14:18:00.770Z,12
2022-08-01T14:19:04.655Z,11
2022-08-01T14:20:05.760Z,11
2022-08-01T14:21:06.709Z,12
2022-08-01T14:22:09.304Z,13
2022-08-01T14:23:10.717Z,12
2022-08-01T14:24:12.562Z,14
2022-08-01T14:26:12.639Z,16
2022-08-01T14:27:14.756Z,18
2022-08-01T14:28:16.828Z,18
2022-08-01T14:29:19.248Z,16
2022-08-01T14:30:21.316Z,15
2022-08-01T14:31:23.052Z,13
2022-08-01T14:32:29.278Z,14
2022-08-01T14:33:30.691Z,14
2022-08-01T14:34:31.714Z,13
2022-08-01T21:57:58.663Z,30
2022-08-01T21:59:00.775Z,28
2022-08-01T22:00:05.694Z,26
2022-08-01T22:01:07.555Z,24
2022-08-01T22:02:11.183Z,22
2022-08-01T22:03:14.243Z,22
2022-08-01T22:04:18.262Z,22
2022-08-01T22:05:22.626Z,21
2022-08-01T22:06:52.945Z,20
2022-08-01T22:07:55.045Z,20
2022-08-01T22:09:00.334Z,19
2022-08-01T22:10:01.852Z,18
2022-08-01T22:11:03.415Z,18
2022-08-01T22:12:04.957Z,17
2022-08-01T22:13:06.291Z,16
2022-08-01T22:14:08.402Z,16
2022-08-01T22:15:10.483Z,17
2022-08-01T22:16:12.857Z,18
2022-08-01T22:17:14.913Z,19
2022-08-01T22:18:16.739Z,20
2022-08-01T22:19:53.371Z,20
2022-08-01T22:20:55.645Z,18
2022-08-01T22:21:57.467Z,19
2022-08-01T22:22:59.082Z,21
2022-08-01T22:24:00.650Z,21
2022-08-01T22:25:02.168Z,21
2022-08-01T22:26:04.505Z,21
2022-08-01T22:27:06.325Z,19
2022-08-01T22:28:10.607Z,18
2022-08-01T22:29:12.633Z,17
2022-08-01T22:30:14.843Z,16
2022-08-01T22:31:16.664Z,16
2022-08-01T22:32:18.482Z,16
2022-08-01T22:33:20.046Z,19
2022-08-01T22:34:21.404Z,19
2022-08-01T22:35:29.123Z,19
2022-08-01T22:36:30.357Z,21
2022-08-01T22:37:57.983Z,20
2022-08-01T22:39:03.791Z,20
2022-08-01T22:40:05.603Z,21
2022-08-01T22:41:07.150Z,21
2022-08-01T22:42:09.045Z,21
2022-08-01T22:43:10.849Z,20
2022-08-01T22:44:12.940Z,21
2022-08-01T22:45:26.688Z,21
2022-08-01T22:46:29.083Z,20
2022-08-01T22:47:30.082Z,21
2022-08-01T22:48:35.425Z,22
2022-08-01T22:49:38.084Z,22
2022-08-01T22:50:40.399Z,23
2022-08-01T22:51:41.396Z,21
2022-08-01T22:52:42.669Z,20
2022-08-01T22:53:44.299Z,20
2022-08-01T22:54:45.828Z,20
2022-08-01T22:55:59.944Z,20
2022-08-01T22:57:08.195Z,20
2022-08-01T22:58:10.159Z,21
2022-08-01T22:59:12.233Z,20
2022-08-01T23:00:13.205Z,20
2022-08-01T23:01:22.615Z,19
2022-08-01T23:02:25.099Z,19
2022-08-01T23:03:26.927Z,18
2022-08-01T23:04:34.529Z,19
2022-08-01T23:05:37.315Z,20
2022-08-01T23:06:38.877Z,20
2022-08-01T23:07:41.533Z,20
2022-08-01T23:08:44.136Z,19
2022-08-01T23:09:56.028Z,18
2022-08-01T23:10:58.096Z,17
2022-08-01T23:12:00.524Z,17
2022-08-01T23:13:02.587Z,18
2022-08-01T23:14:03.866Z,19
2022-08-01T23:15:06.075Z,20
2022-08-01T23:16:07.360Z,20
2022-08-01T23:17:29.775Z,19
2022-08-01T23:18:31.142Z,20
2022-08-01T23:19:32.137Z,19
2022-08-01T23:20:33.151Z,19
2022-08-01T23:21:42.674Z,19
2022-08-01T23:22:45.424Z,19
2022-08-01T23:23:48.077Z,20
2022-08-01T23:25:06.945Z,20
2022-08-01T23:26:09.082Z,20
2022-08-01T23:27:11.170Z,19
2022-08-01T23:28:13.523Z,18
2022-08-01T23:29:15.608Z,17
2022-08-01T23:30:17.225Z,17
2022-08-01T23:31:18.469Z,17
2022-08-01T23:32:19.463Z,17
2022-08-01T23:33:20.467Z,17
2022-08-01T23:34:21.464Z,17
2022-08-01T23:35:24.146Z,17
2022-08-01T23:36:29.127Z,17
2022-08-01T23:37:30.935Z,17
2022-08-01T23:38:32.167Z,17
2022-08-01T23:39:34.564Z,17
2022-08-01T23:40:35.779Z,18
2022-08-01T23:42:06.924Z,17
2022-08-01T23:43:18.308Z,17
2022-08-01T23:44:20.282Z,17
2022-08-01T23:45:22.382Z,16
2022-08-01T23:46:24.178Z,16
2022-08-01T23:47:25.163Z,15
2022-08-01T23:48:26.449Z,15
2022-08-01T23:49:28.165Z,16
2022-08-01T23:50:31.631Z,16